sensor_id;sensor_type;location;lat;lon;timestamp;P1;durP1;ratioP1;P2;durP2;ratioP2
73170;SDS011;61381;50.118;19.962;2024-01-25T00:04:33;4.07;;;1.40;;
73170;SDS011;61381;50.118;19.962;2024-01-25T00:09:34;5.70;;;1.20;;
73170;SDS011;61381;50.118;19.962;2024-01-25T00:14:35;3.00;;;0.90;;
73170;SDS011;61381;50.118;19.962;2024-01-25T00:19:37;5.18;;;1.48;;
73170;SDS011;61381;50.118;19.962;2024-01-25T00:24:38;4.47;;;1.50;;
73170;SDS011;61381;50.118;19.962;2024-01-25T00:29:39;2.17;;;0.73;;
73170;SDS011;61381;50.118;19.962;2024-01-25T00:34:41;3.80;;;1.52;;
73170;SDS011;61381;50.118;19.962;2024-01-25T00:39:43;2.97;;;0.88;;
73170;SDS011;61381;50.118;19.962;2024-01-25T00:44:44;6.25;;;1.40;;
73170;SDS011;61381;50.118;19.962;2024-01-25T00:49:47;1.45;;;0.82;;
73170;SDS011;61381;50.118;19.962;2024-01-25T00:54:49;7.30;;;2.00;;
73170;SDS011;61381;50.118;19.962;2024-01-25T00:59:50;2.63;;;1.48;;
73170;SDS011;61381;50.118;19.962;2024-01-25T01:04:53;4.50;;;1.40;;
73170;SDS011;61381;50.118;19.962;2024-01-25T01:09:54;3.17;;;0.82;;
73170;SDS011;61381;50.118;19.962;2024-01-25T01:19:57;4.00;;;1.60;;
73170;SDS011;61381;50.118;19.962;2024-01-25T01:24:58;6.70;;;1.95;;
73170;SDS011;61381;50.118;19.962;2024-01-25T01:35:01;7.47;;;1.45;;
73170;SDS011;61381;50.118;19.962;2024-01-25T01:40:02;2.70;;;1.35;;
73170;SDS011;61381;50.118;19.962;2024-01-25T01:45:04;2.33;;;1.30;;
73170;SDS011;61381;50.118;19.962;2024-01-25T01:50:07;2.08;;;0.77;;
73170;SDS011;61381;50.118;19.962;2024-01-25T01:55:09;4.57;;;1.38;;
73170;SDS011;61381;50.118;19.962;2024-01-25T02:00:11;4.53;;;1.42;;
73170;SDS011;61381;50.118;19.962;2024-01-25T02:05:17;4.00;;;1.20;;
73170;SDS011;61381;50.118;19.962;2024-01-25T02:10:18;3.50;;;1.63;;
73170;SDS011;61381;50.118;19.962;2024-01-25T02:20:20;5.20;;;1.40;;
73170;SDS011;61381;50.118;19.962;2024-01-25T02:25:23;2.45;;;1.13;;
73170;SDS011;61381;50.118;19.962;2024-01-25T02:30:24;4.55;;;0.95;;
73170;SDS011;61381;50.118;19.962;2024-01-25T02:35:24;1.67;;;0.63;;
73170;SDS011;61381;50.118;19.962;2024-01-25T02:40:27;4.40;;;1.23;;
73170;SDS011;61381;50.118;19.962;2024-01-25T02:45:28;5.25;;;1.65;;
73170;SDS011;61381;50.118;19.962;2024-01-25T02:50:28;4.45;;;1.10;;
73170;SDS011;61381;50.118;19.962;2024-01-25T02:55:31;5.05;;;1.02;;
73170;SDS011;61381;50.118;19.962;2024-01-25T03:00:31;1.48;;;0.93;;
73170;SDS011;61381;50.118;19.962;2024-01-25T03:05:32;3.50;;;0.88;;
73170;SDS011;61381;50.118;19.962;2024-01-25T03:10:34;2.53;;;0.63;;
73170;SDS011;61381;50.118;19.962;2024-01-25T03:15:35;6.50;;;1.13;;
73170;SDS011;61381;50.118;19.962;2024-01-25T03:20:36;4.72;;;1.17;;
73170;SDS011;61381;50.118;19.962;2024-01-25T03:25:38;3.85;;;1.15;;
73170;SDS011;61381;50.118;19.962;2024-01-25T03:30:39;4.50;;;1.58;;
73170;SDS011;61381;50.118;19.962;2024-01-25T03:35:40;2.63;;;0.93;;
73170;SDS011;61381;50.118;19.962;2024-01-25T03:45:43;4.57;;;1.13;;
73170;SDS011;61381;50.118;19.962;2024-01-25T03:55:46;6.88;;;1.15;;
73170;SDS011;61381;50.118;19.962;2024-01-25T04:00:47;0.52;;;0.50;;
73170;SDS011;61381;50.118;19.962;2024-01-25T04:05:48;6.18;;;1.13;;
73170;SDS011;61381;50.118;19.962;2024-01-25T04:10:50;1.40;;;0.68;;
73170;SDS011;61381;50.118;19.962;2024-01-25T04:15:51;5.05;;;0.80;;
73170;SDS011;61381;50.118;19.962;2024-01-25T04:20:52;4.95;;;1.05;;
73170;SDS011;61381;50.118;19.962;2024-01-25T04:25:54;5.35;;;1.58;;
73170;SDS011;61381;50.118;19.962;2024-01-25T04:30:55;3.60;;;1.27;;
73170;SDS011;61381;50.118;19.962;2024-01-25T04:35:56;3.20;;;0.90;;
73170;SDS011;61381;50.118;19.962;2024-01-25T04:45:58;5.05;;;1.30;;
73170;SDS011;61381;50.118;19.962;2024-01-25T04:56:01;4.18;;;1.10;;
73170;SDS011;61381;50.118;19.962;2024-01-25T05:01:02;3.72;;;0.80;;
73170;SDS011;61381;50.118;19.962;2024-01-25T05:06:03;5.95;;;1.05;;
73170;SDS011;61381;50.118;19.962;2024-01-25T05:11:06;3.22;;;1.02;;
73170;SDS011;61381;50.118;19.962;2024-01-25T05:16:07;3.45;;;1.10;;
73170;SDS011;61381;50.118;19.962;2024-01-25T05:26:10;7.15;;;1.30;;
73170;SDS011;61381;50.118;19.962;2024-01-25T05:31:11;5.50;;;0.95;;
73170;SDS011;61381;50.118;19.962;2024-01-25T05:41:14;3.70;;;1.10;;
73170;SDS011;61381;50.118;19.962;2024-01-25T05:46:15;6.78;;;2.90;;
73170;SDS011;61381;50.118;19.962;2024-01-25T05:56:18;3.30;;;0.88;;
73170;SDS011;61381;50.118;19.962;2024-01-25T06:01:19;5.68;;;1.08;;
73170;SDS011;61381;50.118;19.962;2024-01-25T06:11:22;4.15;;;1.20;;
73170;SDS011;61381;50.118;19.962;2024-01-25T06:16:22;7.97;;;2.08;;
73170;SDS011;61381;50.118;19.962;2024-01-25T06:26:25;2.13;;;0.73;;
73170;SDS011;61381;50.118;19.962;2024-01-25T06:31:26;4.07;;;0.77;;
73170;SDS011;61381;50.118;19.962;2024-01-25T06:41:29;3.22;;;1.45;;
73170;SDS011;61381;50.118;19.962;2024-01-25T06:46:30;8.00;;;1.52;;
73170;SDS011;61381;50.118;19.962;2024-01-25T06:56:34;2.47;;;1.05;;
73170;SDS011;61381;50.118;19.962;2024-01-25T07:01:35;5.30;;;1.77;;
73170;SDS011;61381;50.118;19.962;2024-01-25T07:06:36;4.68;;;1.40;;
73170;SDS011;61381;50.118;19.962;2024-01-25T07:16:39;5.10;;;1.90;;
73170;SDS011;61381;50.118;19.962;2024-01-25T07:21:39;6.45;;;1.38;;
73170;SDS011;61381;50.118;19.962;2024-01-25T07:26:42;6.80;;;1.63;;
73170;SDS011;61381;50.118;19.962;2024-01-25T07:31:42;2.85;;;1.20;;
73170;SDS011;61381;50.118;19.962;2024-01-25T07:36:43;4.10;;;1.48;;
73170;SDS011;61381;50.118;19.962;2024-01-25T07:46:46;3.80;;;1.88;;
73170;SDS011;61381;50.118;19.962;2024-01-25T07:56:49;0.77;;;0.50;;
73170;SDS011;61381;50.118;19.962;2024-01-25T08:01:50;7.57;;;1.77;;
73170;SDS011;61381;50.118;19.962;2024-01-25T08:11:53;6.40;;;1.92;;
73170;SDS011;61381;50.118;19.962;2024-01-25T08:16:54;4.65;;;1.70;;
73170;SDS011;61381;50.118;19.962;2024-01-25T08:21:55;3.58;;;1.35;;
73170;SDS011;61381;50.118;19.962;2024-01-25T08:31:58;7.40;;;2.28;;
73170;SDS011;61381;50.118;19.962;2024-01-25T08:42:01;6.78;;;2.47;;
73170;SDS011;61381;50.118;19.962;2024-01-25T08:47:02;5.93;;;1.98;;
73170;SDS011;61381;50.118;19.962;2024-01-25T08:52:03;8.82;;;2.47;;
73170;SDS011;61381;50.118;19.962;2024-01-25T08:57:06;10.13;;;2.92;;
73170;SDS011;61381;50.118;19.962;2024-01-25T09:02:07;6.07;;;2.17;;
73170;SDS011;61381;50.118;19.962;2024-01-25T09:07:09;6.53;;;2.40;;
73170;SDS011;61381;50.118;19.962;2024-01-25T09:12:15;6.85;;;2.63;;
73170;SDS011;61381;50.118;19.962;2024-01-25T09:17:19;9.07;;;2.05;;
73170;SDS011;61381;50.118;19.962;2024-01-25T09:27:22;6.07;;;2.45;;
73170;SDS011;61381;50.118;19.962;2024-01-25T09:32:23;10.48;;;3.03;;
73170;SDS011;61381;50.118;19.962;2024-01-25T09:42:26;5.55;;;2.78;;
73170;SDS011;61381;50.118;19.962;2024-01-25T09:47:27;6.43;;;2.55;;
73170;SDS011;61381;50.118;19.962;2024-01-25T09:57:31;9.13;;;2.88;;
73170;SDS011;61381;50.118;19.962;2024-01-25T10:02:36;6.25;;;2.10;;
73170;SDS011;61381;50.118;19.962;2024-01-25T10:12:40;4.95;;;1.42;;
73170;SDS011;61381;50.118;19.962;2024-01-25T10:17:41;6.68;;;1.63;;
73170;SDS011;61381;50.118;19.962;2024-01-25T10:27:44;5.68;;;2.03;;
73170;SDS011;61381;50.118;19.962;2024-01-25T10:32:45;5.93;;;1.90;;
73170;SDS011;61381;50.118;19.962;2024-01-25T10:37:47;4.55;;;1.55;;
73170;SDS011;61381;50.118;19.962;2024-01-25T10:42:49;3.40;;;1.33;;
73170;SDS011;61381;50.118;19.962;2024-01-25T10:47:50;5.55;;;1.77;;
73170;SDS011;61381;50.118;19.962;2024-01-25T10:52:52;8.63;;;2.03;;
73170;SDS011;61381;50.118;19.962;2024-01-25T10:57:55;5.35;;;2.22;;
73170;SDS011;61381;50.118;19.962;2024-01-25T11:02:56;7.95;;;2.20;;
73170;SDS011;61381;50.118;19.962;2024-01-25T11:07:57;5.30;;;1.55;;
73170;SDS011;61381;50.118;19.962;2024-01-25T11:12:59;5.22;;;1.75;;
73170;SDS011;61381;50.118;19.962;2024-01-25T11:18:02;5.28;;;1.30;;
73170;SDS011;61381;50.118;19.962;2024-01-25T11:23:04;13.98;;;1.67;;
73170;SDS011;61381;50.118;19.962;2024-01-25T11:28:08;6.35;;;1.95;;
73170;SDS011;61381;50.118;19.962;2024-01-25T11:33:08;5.10;;;1.77;;
73170;SDS011;61381;50.118;19.962;2024-01-25T11:38:10;6.57;;;2.00;;
73170;SDS011;61381;50.118;19.962;2024-01-25T11:48:13;6.07;;;1.63;;
73170;SDS011;61381;50.118;19.962;2024-01-25T11:53:13;8.45;;;2.22;;
73170;SDS011;61381;50.118;19.962;2024-01-25T11:58:16;10.63;;;2.13;;
73170;SDS011;61381;50.118;19.962;2024-01-25T12:03:17;4.43;;;1.25;;
73170;SDS011;61381;50.118;19.962;2024-01-25T12:08:18;5.72;;;1.85;;
73170;SDS011;61381;50.118;19.962;2024-01-25T12:13:20;5.50;;;1.23;;
73170;SDS011;61381;50.118;19.962;2024-01-25T12:18:21;3.45;;;1.58;;
73170;SDS011;61381;50.118;19.962;2024-01-25T12:23:22;5.03;;;1.45;;
73170;SDS011;61381;50.118;19.962;2024-01-25T12:28:26;4.63;;;2.25;;
73170;SDS011;61381;50.118;19.962;2024-01-25T12:33:27;4.82;;;2.08;;
73170;SDS011;61381;50.118;19.962;2024-01-25T12:38:28;5.03;;;2.05;;
73170;SDS011;61381;50.118;19.962;2024-01-25T12:43:30;3.92;;;1.30;;
73170;SDS011;61381;50.118;19.962;2024-01-25T12:48:31;5.28;;;1.85;;
73170;SDS011;61381;50.118;19.962;2024-01-25T12:53:32;3.97;;;1.45;;
73170;SDS011;61381;50.118;19.962;2024-01-25T12:58:34;5.53;;;2.47;;
73170;SDS011;61381;50.118;19.962;2024-01-25T13:03:35;7.13;;;2.03;;
73170;SDS011;61381;50.118;19.962;2024-01-25T13:08:36;4.50;;;1.77;;
73170;SDS011;61381;50.118;19.962;2024-01-25T13:13:38;6.20;;;2.10;;
73170;SDS011;61381;50.118;19.962;2024-01-25T13:18:39;10.60;;;2.08;;
73170;SDS011;61381;50.118;19.962;2024-01-25T13:23:40;5.07;;;2.10;;
73170;SDS011;61381;50.118;19.962;2024-01-25T13:28:42;11.07;;;1.80;;
73170;SDS011;61381;50.118;19.962;2024-01-25T13:33:43;12.38;;;2.80;;
73170;SDS011;61381;50.118;19.962;2024-01-25T13:43:46;7.95;;;2.38;;
73170;SDS011;61381;50.118;19.962;2024-01-25T13:48:47;9.73;;;1.85;;
73170;SDS011;61381;50.118;19.962;2024-01-25T13:53:48;3.22;;;1.42;;
73170;SDS011;61381;50.118;19.962;2024-01-25T13:58:50;4.55;;;1.15;;
73170;SDS011;61381;50.118;19.962;2024-01-25T14:03:51;6.85;;;2.20;;
73170;SDS011;61381;50.118;19.962;2024-01-25T14:08:52;7.72;;;1.52;;
73170;SDS011;61381;50.118;19.962;2024-01-25T14:13:54;7.07;;;2.13;;
73170;SDS011;61381;50.118;19.962;2024-01-25T14:18:55;5.78;;;1.70;;
73170;SDS011;61381;50.118;19.962;2024-01-25T14:28:58;6.18;;;1.73;;
73170;SDS011;61381;50.118;19.962;2024-01-25T14:33:59;8.98;;;2.85;;
73170;SDS011;61381;50.118;19.962;2024-01-25T14:44:02;5.00;;;1.95;;
73170;SDS011;61381;50.118;19.962;2024-01-25T14:49:03;7.30;;;2.50;;
73170;SDS011;61381;50.118;19.962;2024-01-25T14:54:04;11.25;;;2.83;;
73170;SDS011;61381;50.118;19.962;2024-01-25T15:04:07;6.30;;;1.80;;
73170;SDS011;61381;50.118;19.962;2024-01-25T15:09:08;8.68;;;2.05;;
73170;SDS011;61381;50.118;19.962;2024-01-25T15:14:10;8.85;;;2.40;;
73170;SDS011;61381;50.118;19.962;2024-01-25T15:19:11;7.18;;;2.08;;
73170;SDS011;61381;50.118;19.962;2024-01-25T15:29:14;6.47;;;1.95;;
73170;SDS011;61381;50.118;19.962;2024-01-25T15:34:15;4.35;;;1.50;;
73170;SDS011;61381;50.118;19.962;2024-01-25T15:39:16;10.25;;;2.40;;
73170;SDS011;61381;50.118;19.962;2024-01-25T15:49:19;6.85;;;3.22;;
73170;SDS011;61381;50.118;19.962;2024-01-25T15:54:20;11.88;;;2.97;;
73170;SDS011;61381;50.118;19.962;2024-01-25T15:59:22;3.78;;;2.55;;
73170;SDS011;61381;50.118;19.962;2024-01-25T16:04:23;9.52;;;2.92;;
73170;SDS011;61381;50.118;19.962;2024-01-25T16:14:26;11.38;;;3.00;;
73170;SDS011;61381;50.118;19.962;2024-01-25T16:19:27;4.10;;;2.30;;
73170;SDS011;61381;50.118;19.962;2024-01-25T16:29:30;8.43;;;3.30;;
73170;SDS011;61381;50.118;19.962;2024-01-25T16:34:31;2.13;;;1.10;;
73170;SDS011;61381;50.118;19.962;2024-01-25T16:39:32;5.97;;;2.45;;
73170;SDS011;61381;50.118;19.962;2024-01-25T16:44:34;6.57;;;2.47;;
73170;SDS011;61381;50.118;19.962;2024-01-25T16:49:35;7.90;;;2.55;;
73170;SDS011;61381;50.118;19.962;2024-01-25T16:54:36;3.78;;;1.65;;
73170;SDS011;61381;50.118;19.962;2024-01-25T16:59:38;10.70;;;2.30;;
73170;SDS011;61381;50.118;19.962;2024-01-25T17:04:39;9.07;;;2.80;;
73170;SDS011;61381;50.118;19.962;2024-01-25T17:09:40;6.22;;;2.13;;
73170;SDS011;61381;50.118;19.962;2024-01-25T17:14:42;6.50;;;3.13;;
73170;SDS011;61381;50.118;19.962;2024-01-25T17:19:43;10.65;;;2.72;;
73170;SDS011;61381;50.118;19.962;2024-01-25T17:24:44;7.80;;;2.25;;
73170;SDS011;61381;50.118;19.962;2024-01-25T17:34:47;5.38;;;1.38;;
73170;SDS011;61381;50.118;19.962;2024-01-25T17:44:50;5.97;;;1.70;;
73170;SDS011;61381;50.118;19.962;2024-01-25T17:49:51;4.82;;;1.70;;
73170;SDS011;61381;50.118;19.962;2024-01-25T17:54:52;14.55;;;3.13;;
73170;SDS011;61381;50.118;19.962;2024-01-25T18:04:55;3.63;;;1.85;;
73170;SDS011;61381;50.118;19.962;2024-01-25T18:09:56;8.13;;;2.55;;
73170;SDS011;61381;50.118;19.962;2024-01-25T18:15:57;9.73;;;3.30;;
73170;SDS011;61381;50.118;19.962;2024-01-25T18:21:57;5.50;;;2.40;;
73170;SDS011;61381;50.118;19.962;2024-01-25T18:27:56;8.82;;;2.65;;
73170;SDS011;61381;50.118;19.962;2024-01-25T18:33:57;8.88;;;2.10;;
73170;SDS011;61381;50.118;19.962;2024-01-25T18:45:40;8.38;;;2.55;;
73170;SDS011;61381;50.118;19.962;2024-01-25T18:50:42;7.68;;;3.03;;
73170;SDS011;61381;50.118;19.962;2024-01-25T18:55:43;7.72;;;3.00;;
73170;SDS011;61381;50.118;19.962;2024-01-25T19:00:45;10.98;;;3.20;;
73170;SDS011;61381;50.118;19.962;2024-01-25T19:05:53;8.77;;;2.58;;
73170;SDS011;61381;50.118;19.962;2024-01-25T19:11:03;5.28;;;2.80;;
73170;SDS011;61381;50.118;19.962;2024-01-25T19:16:04;9.90;;;4.78;;
73170;SDS011;61381;50.118;19.962;2024-01-25T19:21:07;9.55;;;3.70;;
73170;SDS011;61381;50.118;19.962;2024-01-25T19:26:08;5.55;;;1.88;;
73170;SDS011;61381;50.118;19.962;2024-01-25T19:31:09;11.75;;;2.38;;
73170;SDS011;61381;50.118;19.962;2024-01-25T19:36:12;8.57;;;2.33;;
73170;SDS011;61381;50.118;19.962;2024-01-25T19:41:13;12.85;;;3.67;;
73170;SDS011;61381;50.118;19.962;2024-01-25T19:46:14;10.18;;;2.60;;
73170;SDS011;61381;50.118;19.962;2024-01-25T19:51:16;6.90;;;2.97;;
73170;SDS011;61381;50.118;19.962;2024-01-25T19:56:17;6.53;;;2.55;;
73170;SDS011;61381;50.118;19.962;2024-01-25T20:01:18;5.25;;;2.78;;
73170;SDS011;61381;50.118;19.962;2024-01-25T20:06:21;3.60;;;2.13;;
73170;SDS011;61381;50.118;19.962;2024-01-25T20:11:25;9.02;;;3.92;;
73170;SDS011;61381;50.118;19.962;2024-01-25T20:16:26;4.93;;;2.47;;
73170;SDS011;61381;50.118;19.962;2024-01-25T20:21:28;4.13;;;2.78;;
73170;SDS011;61381;50.118;19.962;2024-01-25T20:26:29;7.45;;;2.97;;
73170;SDS011;61381;50.118;19.962;2024-01-25T20:36:33;4.07;;;1.65;;
73170;SDS011;61381;50.118;19.962;2024-01-25T20:41:34;7.20;;;3.00;;
73170;SDS011;61381;50.118;19.962;2024-01-25T20:46:34;13.27;;;3.10;;
73170;SDS011;61381;50.118;19.962;2024-01-25T20:51:37;7.10;;;3.65;;
73170;SDS011;61381;50.118;19.962;2024-01-25T20:56:38;12.43;;;5.13;;
73170;SDS011;61381;50.118;19.962;2024-01-25T21:01:39;7.50;;;3.22;;
73170;SDS011;61381;50.118;19.962;2024-01-25T21:06:42;7.07;;;3.30;;
73170;SDS011;61381;50.118;19.962;2024-01-25T21:11:43;9.73;;;4.35;;
73170;SDS011;61381;50.118;19.962;2024-01-25T21:16:45;8.82;;;3.60;;
73170;SDS011;61381;50.118;19.962;2024-01-25T21:21:49;12.38;;;3.53;;
73170;SDS011;61381;50.118;19.962;2024-01-25T21:26:50;7.60;;;2.65;;
73170;SDS011;61381;50.118;19.962;2024-01-25T21:31:51;4.68;;;1.83;;
73170;SDS011;61381;50.118;19.962;2024-01-25T21:36:53;9.80;;;3.50;;
73170;SDS011;61381;50.118;19.962;2024-01-25T21:41:54;3.38;;;2.03;;
73170;SDS011;61381;50.118;19.962;2024-01-25T21:46:55;3.90;;;1.55;;
73170;SDS011;61381;50.118;19.962;2024-01-25T21:51:57;8.95;;;2.33;;
73170;SDS011;61381;50.118;19.962;2024-01-25T21:56:58;4.68;;;1.80;;
73170;SDS011;61381;50.118;19.962;2024-01-25T22:01:59;5.80;;;2.55;;
73170;SDS011;61381;50.118;19.962;2024-01-25T22:07:01;13.32;;;3.40;;
73170;SDS011;61381;50.118;19.962;2024-01-25T22:12:02;11.45;;;2.17;;
73170;SDS011;61381;50.118;19.962;2024-01-25T22:17:04;6.63;;;2.00;;
73170;SDS011;61381;50.118;19.962;2024-01-25T22:22:06;7.50;;;2.30;;
73170;SDS011;61381;50.118;19.962;2024-01-25T22:27:07;5.85;;;1.95;;
73170;SDS011;61381;50.118;19.962;2024-01-25T22:32:08;7.47;;;2.20;;
73170;SDS011;61381;50.118;19.962;2024-01-25T22:37:11;3.70;;;1.27;;
73170;SDS011;61381;50.118;19.962;2024-01-25T22:42:12;5.18;;;1.42;;
73170;SDS011;61381;50.118;19.962;2024-01-25T22:47:13;5.50;;;1.27;;
73170;SDS011;61381;50.118;19.962;2024-01-25T22:57:15;4.53;;;1.00;;
73170;SDS011;61381;50.118;19.962;2024-01-25T23:02:16;2.78;;;1.60;;
73170;SDS011;61381;50.118;19.962;2024-01-25T23:12:19;4.25;;;2.30;;
73170;SDS011;61381;50.118;19.962;2024-01-25T23:17:20;4.35;;;1.48;;
73170;SDS011;61381;50.118;19.962;2024-01-25T23:22:23;6.82;;;1.45;;
73170;SDS011;61381;50.118;19.962;2024-01-25T23:27:23;4.47;;;1.27;;
73170;SDS011;61381;50.118;19.962;2024-01-25T23:32:24;4.45;;;1.65;;
73170;SDS011;61381;50.118;19.962;2024-01-25T23:37:26;4.50;;;2.05;;
73170;SDS011;61381;50.118;19.962;2024-01-25T23:42:27;4.45;;;1.67;;
73170;SDS011;61381;50.118;19.962;2024-01-25T23:47:28;7.18;;;2.28;;
73170;SDS011;61381;50.118;19.962;2024-01-25T23:52:30;8.90;;;3.20;;
73170;SDS011;61381;50.118;19.962;2024-01-25T23:57:31;6.20;;;1.67;;
